createdAt,value
2022-10-05T04:03:16.993Z,4.70
2022-10-05T04:05:59.341Z,4.20
2022-10-05T04:09:18.523Z,3.30
2022-10-05T04:11:51.776Z,3.70
2022-10-05T04:14:39.179Z,3.38
2022-10-05T04:17:12.252Z,3.47
2022-10-05T04:20:00.533Z,3.15
2022-10-05T04:22:36.665Z,3.17
2022-10-05T04:25:43.506Z,3.00
2022-10-05T04:28:29.623Z,2.90
2022-10-05T04:31:06.102Z,3.25
2022-10-05T04:33:33.411Z,3.17
2022-10-05T04:36:05.829Z,3.38
2022-10-05T04:38:48.737Z,4.00
2022-10-05T04:41:41.324Z,3.88
2022-10-05T04:44:23.065Z,3.92
2022-10-05T04:47:17.665Z,4.32
2022-10-05T04:50:12.930Z,3.90
2022-10-05T04:53:02.294Z,3.80
2022-10-05T04:55:40.372Z,3.83
2022-10-05T04:58:28.813Z,4.10
2022-10-05T05:01:13.837Z,4.13
2022-10-05T05:03:43.596Z,4.43
2022-10-05T05:06:18.346Z,4.70
2022-10-05T05:09:00.642Z,4.13
2022-10-05T05:11:36.237Z,4.30
2022-10-05T05:14:34.800Z,4.00
2022-10-05T05:17:13.505Z,3.85
2022-10-05T05:19:44.419Z,3.80
2022-10-05T05:22:16.913Z,3.20
2022-10-05T05:25:02.527Z,4.10
2022-10-05T05:27:40.493Z,3.67
2022-10-05T05:30:26.973Z,3.92
2022-10-05T05:33:19.671Z,3.60
2022-10-05T05:36:07.812Z,3.58
2022-10-05T05:38:53.206Z,4.13
2022-10-05T05:41:39.442Z,3.85
2022-10-05T05:44:29.395Z,3.60
2022-10-05T05:47:20.358Z,3.50
2022-10-05T05:50:24.475Z,3.40
2022-10-05T05:52:57.289Z,3.28
2022-10-05T05:55:32.988Z,2.55
2022-10-05T05:58:22.402Z,2.42
2022-10-05T06:01:30.554Z,2.77
2022-10-05T06:04:10.672Z,2.20
2022-10-05T06:06:42.488Z,2.55
2022-10-05T06:09:41.861Z,2.63
2022-10-05T06:12:16.565Z,2.55
2022-10-05T06:14:49.792Z,3.03
2022-10-05T06:17:24.562Z,3.38
2022-10-05T06:20:02.415Z,3.50
2022-10-05T06:22:39.603Z,3.80
2022-10-05T06:25:12.065Z,3.83
2022-10-05T06:27:38.620Z,4.30
2022-10-05T06:30:16.237Z,4.38
2022-10-05T06:33:20.688Z,3.88
2022-10-05T06:35:55.921Z,3.55
2022-10-05T06:38:43.854Z,3.53
2022-10-05T06:41:43.249Z,3.33
2022-10-05T06:44:37.372Z,3.35
2022-10-05T06:47:03.885Z,3.80
2022-10-05T06:49:42.530Z,3.40
2022-10-05T06:52:15.004Z,3.40
2022-10-05T06:54:50.444Z,3.40
2022-10-05T06:57:50.718Z,3.47
2022-10-05T07:00:54.277Z,3.50
2022-10-05T07:03:45.668Z,3.08
2022-10-05T07:06:28.789Z,3.10
2022-10-05T07:09:12.071Z,3.00
2022-10-05T07:12:11.112Z,3.47
2022-10-05T07:14:50.126Z,3.50
2022-10-05T07:17:42.570Z,3.28
2022-10-05T07:20:24.430Z,3.35
2022-10-05T07:23:29.096Z,3.23
2022-10-05T07:26:05.895Z,3.40
2022-10-05T07:28:55.057Z,3.55
2022-10-05T07:31:27.604Z,3.45
2022-10-05T07:34:19.230Z,3.90
2022-10-05T07:37:45.274Z,3.27
2022-10-05T07:40:38.116Z,3.55
2022-10-05T07:43:32.101Z,4.00
2022-10-05T07:46:15.543Z,3.90
2022-10-05T07:49:05.473Z,4.10
2022-10-05T07:51:45.821Z,4.10
2022-10-05T07:54:25.682Z,3.85
2022-10-05T07:57:00.560Z,4.03
2022-10-05T07:59:38.688Z,3.83
2022-10-05T08:02:29.466Z,3.88
2022-10-05T08:05:03.349Z,3.73
2022-10-05T08:07:33.968Z,4.07
2022-10-05T08:10:19.208Z,4.03
2022-10-05T08:13:14.996Z,3.70
2022-10-05T08:15:44.917Z,4.43
2022-10-05T08:18:20.694Z,4.20
2022-10-05T08:20:53.411Z,3.95
2022-10-05T08:23:31.020Z,4.40
2022-10-05T08:26:14.650Z,4.32
2022-10-05T08:28:57.437Z,4.20
2022-10-05T08:31:27.636Z,3.77
2022-10-05T08:34:17.415Z,3.75
2022-10-05T08:36:44.896Z,3.55
2022-10-05T08:39:18.926Z,3.63
2022-10-05T08:42:03.750Z,3.75
2022-10-05T08:45:07.889Z,3.83
2022-10-05T08:47:52.908Z,4.05
2022-10-05T08:50:53.315Z,4.07
2022-10-05T08:53:43.274Z,3.50
2022-10-05T08:56:29.074Z,4.28
2022-10-05T08:59:27.134Z,4.20
2022-10-05T09:02:06.202Z,4.13
2022-10-05T09:04:51.287Z,3.90
2022-10-05T09:07:17.768Z,3.80
2022-10-05T09:10:19.529Z,3.22
2022-10-05T09:13:04.876Z,3.23
2022-10-05T09:15:50.535Z,2.90
2022-10-05T09:18:52.374Z,2.97
2022-10-05T09:21:43.283Z,2.65
2022-10-05T09:24:12.840Z,2.50
2022-10-05T09:26:48.861Z,2.97
2022-10-05T09:29:37.046Z,2.53
2022-10-05T09:32:51.838Z,2.58
2022-10-05T09:35:59.657Z,2.50
2022-10-05T09:39:08.394Z,3.00
2022-10-05T09:42:02.493Z,2.43
2022-10-05T09:45:00.129Z,2.50
2022-10-05T09:48:02.636Z,2.85
2022-10-05T09:50:38.117Z,3.22
2022-10-05T09:53:40.845Z,3.40
2022-10-05T09:56:29.622Z,3.10
2022-10-05T09:59:17.952Z,3.38
2022-10-05T10:02:20.528Z,3.15
2022-10-05T10:05:05.746Z,4.07
2022-10-05T10:07:44.541Z,3.25
2022-10-05T10:10:19.954Z,3.57
2022-10-05T10:12:58.641Z,3.90
2022-10-05T10:15:34.161Z,3.53
2022-10-05T10:18:19.176Z,3.92
2022-10-05T10:21:07.551Z,3.78
2022-10-05T10:24:01.374Z,4.03
2022-10-05T10:26:47.644Z,4.20
2022-10-05T10:29:48.152Z,4.05
2022-10-05T10:32:33.040Z,3.90
2022-10-05T10:35:12.326Z,3.90
2022-10-05T10:37:58.601Z,3.97
2022-10-05T10:40:56.354Z,4.10
2022-10-05T10:44:14.144Z,3.70
2022-10-05T10:47:35.071Z,3.67
2022-10-05T10:50:28.313Z,3.40
2022-10-05T10:53:36.703Z,3.13
2022-10-05T10:56:12.327Z,3.33
2022-10-05T10:58:57.327Z,3.45
2022-10-05T11:01:32.820Z,3.70
2022-10-05T11:04:35.233Z,3.65
2022-10-05T11:07:04.597Z,4.37
2022-10-05T11:09:43.445Z,3.67
2022-10-05T11:12:13.224Z,3.30
2022-10-05T11:14:57.081Z,3.47
2022-10-05T11:17:38.681Z,3.45
2022-10-05T11:20:42.460Z,3.40
2022-10-05T11:23:39.144Z,3.50
2022-10-05T11:26:08.631Z,3.40
2022-10-05T11:28:42.433Z,3.00
2022-10-05T11:31:39.069Z,3.00
2022-10-05T11:34:08.252Z,3.03
2022-10-05T11:36:46.211Z,3.17
2022-10-05T11:39:38.115Z,3.78
2022-10-05T11:42:33.716Z,3.08
2022-10-05T11:45:33.079Z,3.22
2022-10-05T11:48:37.701Z,3.30
2022-10-05T11:51:28.903Z,2.80
2022-10-05T11:54:18.494Z,3.30
2022-10-05T11:56:54.734Z,3.00
2022-10-05T11:59:34.555Z,3.42
2022-10-05T12:02:13.932Z,3.80
2022-10-05T12:04:49.753Z,3.75
2022-10-05T12:07:30.140Z,3.60
2022-10-05T12:10:15.153Z,4.68
2022-10-05T12:12:52.296Z,3.95
2022-10-05T12:15:31.848Z,3.90
2022-10-05T12:18:08.283Z,4.60
2022-10-05T12:20:49.603Z,5.00
2022-10-05T12:23:30.893Z,4.10
2022-10-05T12:26:20.499Z,4.40
2022-10-05T12:28:52.892Z,5.60
2022-10-05T12:31:37.660Z,5.55
2022-10-05T12:34:20.857Z,5.10
2022-10-05T12:37:09.343Z,4.32
2022-10-05T12:40:00.165Z,4.70
2022-10-05T12:42:51.257Z,6.40
2022-10-05T12:45:36.065Z,4.50
2022-10-05T12:48:15.745Z,4.70
2022-10-05T12:50:47.921Z,3.92
2022-10-05T12:53:59.080Z,5.22
2022-10-05T12:56:50.559Z,4.00
2022-10-05T12:59:38.375Z,4.50
2022-10-05T13:02:39.001Z,5.20
2022-10-05T13:05:11.303Z,4.40
2022-10-05T13:07:59.007Z,4.70
2022-10-05T13:10:47.958Z,4.80
2022-10-05T13:13:23.946Z,4.57
2022-10-05T13:16:11.258Z,5.40
2022-10-05T13:19:06.605Z,4.97
2022-10-05T13:21:48.642Z,4.75
2022-10-05T13:24:24.010Z,4.13
2022-10-05T13:26:57.617Z,3.88
2022-10-05T13:29:33.116Z,3.17
2022-10-05T13:32:23.730Z,3.30
2022-10-05T13:35:02.485Z,3.38
2022-10-05T13:37:56.120Z,3.10
2022-10-05T13:40:36.332Z,3.38
2022-10-05T13:43:33.582Z,3.58
2022-10-05T13:46:37.653Z,3.28
2022-10-05T13:49:16.271Z,3.17
2022-10-05T13:52:08.469Z,3.30
2022-10-05T13:54:58.125Z,2.92
2022-10-05T13:57:45.481Z,2.60
2022-10-05T14:00:24.214Z,2.80
2022-10-05T14:02:57.755Z,2.50
2022-10-05T14:05:27.105Z,2.90
2022-10-05T14:08:02.546Z,3.13
2022-10-05T14:10:37.811Z,3.13
2022-10-05T14:13:33.666Z,3.30
2022-10-05T14:16:06.625Z,2.78
2022-10-05T14:18:36.938Z,2.93
2022-10-05T14:21:12.926Z,2.70
2022-10-05T14:23:40.314Z,2.80
2022-10-05T14:26:31.741Z,2.75
2022-10-05T14:29:18.868Z,3.30
2022-10-05T14:31:54.452Z,2.83
2022-10-05T14:34:31.024Z,2.83
2022-10-05T14:37:01.340Z,3.00
2022-10-05T14:39:34.019Z,2.80
2022-10-05T14:42:14.072Z,3.85
2022-10-05T14:44:41.071Z,3.27
2022-10-05T14:47:30.284Z,2.88
2022-10-05T14:50:30.679Z,3.13
2022-10-05T14:53:00.645Z,3.45
2022-10-05T14:55:45.842Z,3.20
2022-10-05T14:58:40.311Z,2.87
2022-10-05T15:01:14.899Z,3.05
2022-10-05T15:03:53.753Z,2.85
2022-10-05T15:06:35.455Z,2.50
2022-10-05T15:09:30.745Z,2.80
2022-10-05T15:12:01.825Z,2.63
2022-10-05T15:14:40.356Z,2.58
2022-10-05T15:17:17.274Z,2.75
2022-10-05T15:20:02.064Z,2.60
2022-10-05T15:22:36.489Z,2.60
2022-10-05T15:25:13.772Z,2.97
2022-10-05T15:28:11.517Z,2.63
2022-10-05T15:30:43.099Z,2.40
2022-10-05T15:33:20.705Z,2.40
2022-10-05T15:36:00.686Z,2.50
2022-10-05T15:39:08.287Z,2.50
2022-10-05T15:41:52.964Z,2.30
2022-10-05T15:44:28.518Z,2.40
2022-10-05T15:47:08.933Z,2.30
2022-10-05T15:49:38.320Z,2.60
2022-10-05T15:52:26.810Z,2.37
2022-10-05T15:55:11.811Z,2.45
2022-10-05T15:58:16.065Z,2.28
2022-10-05T16:00:48.576Z,2.30
2022-10-05T16:03:37.043Z,2.65
2022-10-05T16:06:38.610Z,2.30
2022-10-05T16:09:27.012Z,2.80
2022-10-05T16:12:02.363Z,2.90
2022-10-05T16:15:20.453Z,2.83
2022-10-05T16:18:27.041Z,2.95
2022-10-05T16:21:18.242Z,3.00
2022-10-05T16:24:15.599Z,2.90
2022-10-05T16:27:07.141Z,3.08
2022-10-05T16:29:51.672Z,2.30
2022-10-05T16:32:30.238Z,3.53
2022-10-05T16:35:33.255Z,2.50
2022-10-05T16:38:22.094Z,2.40
2022-10-05T16:41:02.349Z,4.53
2022-10-05T16:43:29.083Z,5.03
2022-10-05T16:46:00.501Z,5.50
2022-10-05T16:48:52.419Z,2.80
2022-10-05T16:51:21.664Z,2.85
2022-10-05T16:53:59.655Z,2.65
2022-10-05T16:56:32.058Z,2.90
2022-10-05T16:59:04.548Z,3.17
2022-10-05T17:02:05.211Z,2.53
2022-10-05T17:04:46.586Z,3.10
2022-10-05T17:07:25.090Z,3.65
2022-10-05T17:10:22.679Z,3.65
2022-10-05T17:13:03.999Z,3.08
2022-10-05T17:15:56.566Z,4.00
2022-10-05T17:18:49.390Z,4.03
2022-10-05T17:21:21.719Z,3.50
2022-10-05T17:24:00.429Z,3.90
2022-10-05T17:26:45.322Z,3.55
2022-10-05T17:29:30.824Z,3.53
2022-10-05T17:32:06.272Z,3.28
2022-10-05T17:34:36.886Z,3.58
2022-10-05T17:37:17.473Z,3.10
2022-10-05T17:39:45.970Z,3.53
2022-10-05T17:42:46.494Z,3.30
2022-10-05T17:45:13.017Z,3.17
2022-10-05T17:48:11.644Z,3.17
2022-10-05T17:51:07.414Z,3.33
2022-10-05T17:53:52.753Z,3.15
2022-10-05T17:56:23.273Z,3.10
2022-10-05T17:58:54.611Z,3.30
2022-10-05T18:01:30.364Z,3.10
2022-10-05T18:04:32.481Z,2.97
2022-10-05T18:07:16.915Z,3.28
2022-10-05T18:10:09.662Z,3.70
2022-10-05T18:12:36.120Z,4.80
2022-10-05T18:15:05.382Z,4.05
2022-10-05T18:17:56.118Z,3.30
2022-10-05T18:20:28.778Z,3.33
2022-10-05T18:23:07.368Z,3.20
2022-10-05T18:25:52.132Z,3.63
2022-10-05T18:28:21.412Z,2.83
2022-10-05T18:31:00.479Z,3.25
2022-10-05T18:33:41.534Z,3.13
2022-10-05T18:36:38.044Z,3.07
2022-10-05T18:39:33.994Z,3.22
2022-10-05T18:42:31.606Z,3.20
2022-10-05T18:45:14.782Z,3.75
2022-10-05T18:47:51.217Z,3.83
2022-10-05T18:50:34.269Z,3.10
2022-10-05T18:53:28.313Z,3.90
2022-10-05T18:56:03.587Z,4.32
2022-10-05T18:58:56.935Z,4.15
2022-10-05T19:01:28.047Z,4.00
2022-10-05T19:04:09.682Z,4.20
2022-10-05T19:06:57.581Z,4.75
2022-10-05T19:09:42.708Z,3.58
2022-10-05T19:12:22.357Z,4.28
2022-10-05T19:14:54.800Z,4.40
2022-10-05T19:17:31.729Z,4.00
2022-10-05T19:20:20.982Z,3.95
2022-10-05T19:23:30.138Z,3.70
2022-10-05T19:26:03.268Z,3.90
2022-10-05T19:28:37.123Z,4.00
2022-10-05T19:31:12.907Z,3.10
2022-10-05T19:34:07.483Z,3.70
2022-10-05T19:37:09.591Z,4.22
2022-10-05T19:39:58.757Z,3.70
2022-10-05T19:42:45.199Z,4.13
2022-10-05T19:45:28.279Z,3.27
2022-10-05T19:48:23.706Z,3.58
2022-10-05T19:50:58.629Z,4.00
2022-10-05T19:53:32.627Z,3.60
2022-10-05T19:56:21.058Z,3.58
2022-10-05T19:58:49.903Z,3.60
2022-10-05T20:01:31.414Z,3.15
2022-10-05T20:03:58.104Z,3.15
2022-10-05T20:06:26.773Z,2.17
2022-10-05T20:08:59.935Z,0.80
2022-10-05T20:11:28.244Z,0.30
2022-10-05T20:13:58.482Z,0.30
2022-10-05T20:19:50.898Z,0.52
2022-10-05T20:22:29.822Z,4.15
2022-10-05T20:25:02.453Z,0.43
2022-10-05T20:27:43.792Z,0.47
2022-10-05T20:30:27.887Z,1.45
2022-10-05T20:33:09.310Z,0.95
2022-10-05T20:35:35.826Z,1.08
2022-10-05T20:38:02.404Z,3.40
2022-10-05T20:40:30.155Z,1.80
2022-10-05T20:42:58.234Z,1.65
2022-10-05T20:45:24.870Z,2.13
2022-10-05T20:47:51.739Z,1.35
2022-10-05T20:50:18.535Z,1.87
2022-10-05T20:52:45.125Z,3.60
2022-10-05T20:55:12.206Z,2.22
2022-10-05T20:57:42.098Z,1.92
2022-10-05T21:00:10.937Z,0.82
2022-10-05T21:02:39.525Z,0.90
2022-10-05T21:05:07.775Z,0.80
2022-10-05T21:07:34.461Z,0.95
2022-10-05T21:10:04.225Z,0.90
2022-10-05T21:12:30.946Z,1.25
2022-10-05T21:14:59.532Z,1.10
2022-10-05T21:17:26.089Z,1.05
2022-10-05T21:19:52.691Z,1.40
2022-10-05T21:22:19.224Z,1.13
2022-10-05T21:24:45.992Z,1.75
2022-10-05T21:27:12.578Z,1.37
2022-10-05T21:29:41.267Z,1.55
2022-10-05T21:32:11.622Z,1.40
2022-10-05T21:34:41.637Z,1.20
2022-10-05T21:37:08.634Z,5.30
2022-10-05T21:39:36.726Z,2.03
2022-10-05T21:42:04.448Z,1.95
2022-10-05T21:44:31.048Z,4.53
2022-10-05T21:46:57.711Z,2.55
2022-10-05T21:49:25.411Z,2.28
2022-10-05T21:51:52.065Z,1.87
2022-10-05T21:54:21.123Z,1.80
2022-10-05T21:56:51.674Z,2.00
2022-10-05T21:59:21.640Z,2.58
